createdAt,value
2023-04-27T00:00:06.983Z,2.83
2023-04-27T00:02:35.273Z,3.11
2023-04-27T00:05:04.005Z,3.06
2023-04-27T00:07:32.026Z,3.01
2023-04-27T00:10:00.009Z,2.98
2023-04-27T00:12:27.818Z,2.96
2023-04-27T00:14:55.635Z,2.79
2023-04-27T00:17:25.143Z,2.88
2023-04-27T00:19:53.440Z,2.85
2023-04-27T00:22:21.422Z,2.83
2023-04-27T00:24:49.512Z,2.79
2023-04-27T00:27:17.328Z,2.69
2023-04-27T00:29:45.161Z,2.72
2023-04-27T00:32:13.326Z,2.70
2023-04-27T00:34:42.606Z,2.66
2023-04-27T00:37:10.520Z,2.29
2023-04-27T00:39:38.586Z,2.54
2023-04-27T00:42:06.753Z,2.61
2023-04-27T00:44:34.588Z,1.70
2023-04-27T00:47:02.589Z,2.64
2023-04-27T00:49:30.794Z,2.61
2023-04-27T00:52:00.523Z,2.67
2023-04-27T00:54:28.774Z,2.71
2023-04-27T00:56:57.115Z,2.73
2023-04-27T00:59:25.263Z,2.74
2023-04-27T01:01:54.169Z,2.74
2023-04-27T01:04:22.308Z,2.76
2023-04-27T01:06:50.194Z,2.75
2023-04-27T01:09:20.348Z,2.35
2023-04-27T01:11:48.411Z,2.70
2023-04-27T01:14:17.295Z,2.64
2023-04-27T01:16:46.551Z,2.60
2023-04-27T01:19:15.137Z,2.56
2023-04-27T01:21:43.326Z,2.53
2023-04-27T01:24:13.420Z,2.50
2023-04-27T01:26:41.452Z,2.48
2023-04-27T01:29:09.275Z,2.46
2023-04-27T01:31:37.588Z,2.46
2023-04-27T01:34:06.134Z,2.43
2023-04-27T01:36:34.000Z,2.42
2023-04-27T01:39:02.042Z,2.31
2023-04-27T01:41:31.476Z,2.38
2023-04-27T01:43:59.324Z,2.36
2023-04-27T01:46:27.393Z,2.36
2023-04-27T01:48:55.469Z,2.34
2023-04-27T01:51:23.280Z,2.33
2023-04-27T01:53:51.485Z,2.33
2023-04-27T01:56:19.293Z,2.30
2023-04-27T01:58:50.700Z,2.28
2023-04-27T02:01:19.048Z,2.21
2023-04-27T02:03:47.160Z,2.27
2023-04-27T02:06:15.294Z,2.24
2023-04-27T02:08:43.291Z,2.23
2023-04-27T02:11:11.149Z,2.22
2023-04-27T02:13:39.010Z,2.24
2023-04-27T02:16:09.110Z,2.25
2023-04-27T02:18:37.024Z,2.23
2023-04-27T02:21:09.874Z,2.11
2023-04-27T02:23:37.959Z,2.19
2023-04-27T02:26:05.969Z,2.10
2023-04-27T02:28:34.154Z,2.14
2023-04-27T02:31:02.873Z,2.13
2023-04-27T02:33:32.240Z,2.12
2023-04-27T02:36:00.403Z,1.97
2023-04-27T02:38:28.229Z,2.12
2023-04-27T02:40:56.145Z,2.10
2023-04-27T02:43:24.185Z,2.11
2023-04-27T02:45:52.017Z,2.09
2023-04-27T02:48:20.332Z,2.08
2023-04-27T02:50:49.864Z,2.01
2023-04-27T02:53:17.696Z,2.05
2023-04-27T02:55:49.218Z,2.04
2023-04-27T02:58:17.915Z,2.03
2023-04-27T03:00:46.160Z,2.03
2023-04-27T03:03:14.409Z,2.03
2023-04-27T03:05:42.659Z,2.04
2023-04-27T03:08:11.894Z,2.05
2023-04-27T03:10:39.968Z,2.03
2023-04-27T03:13:08.219Z,2.02
2023-04-27T03:15:36.342Z,2.03
2023-04-27T03:18:04.516Z,2.01
2023-04-27T03:20:32.822Z,2.01
2023-04-27T03:23:00.718Z,1.96
2023-04-27T03:25:30.025Z,2.01
2023-04-27T03:27:58.184Z,2.01
2023-04-27T03:30:26.039Z,2.01
2023-04-27T03:32:53.956Z,2.01
2023-04-27T03:35:22.001Z,1.98
2023-04-27T03:37:49.820Z,2.04
2023-04-27T03:40:17.679Z,2.06
2023-04-27T03:42:47.345Z,2.10
2023-04-27T03:45:16.636Z,2.11
2023-04-27T03:47:44.572Z,2.13
2023-04-27T03:50:12.751Z,2.09
2023-04-27T03:52:40.706Z,2.19
2023-04-27T03:55:09.242Z,2.21
2023-04-27T03:57:38.840Z,2.01
2023-04-27T04:00:11.690Z,2.28
2023-04-27T04:02:39.961Z,1.92
2023-04-27T04:05:08.883Z,2.36
2023-04-27T04:07:36.826Z,2.38
2023-04-27T04:10:05.376Z,2.42
2023-04-27T04:12:33.253Z,2.35
2023-04-27T04:15:01.096Z,2.50
2023-04-27T04:17:30.568Z,2.54
2023-04-27T04:19:58.400Z,2.44
2023-04-27T04:22:26.216Z,2.61
2023-04-27T04:24:54.451Z,2.66
2023-04-27T04:27:22.361Z,2.69
2023-04-27T04:29:50.535Z,2.73
2023-04-27T04:32:20.077Z,2.67
2023-04-27T04:34:51.703Z,2.80
2023-04-27T04:37:19.679Z,2.84
2023-04-27T04:39:47.632Z,2.88
2023-04-27T04:42:15.620Z,2.77
2023-04-27T04:44:43.632Z,2.84
2023-04-27T04:47:12.330Z,2.99
2023-04-27T04:49:40.780Z,2.95
2023-04-27T04:52:10.212Z,3.07
2023-04-27T04:54:38.099Z,3.11
2023-04-27T04:57:07.769Z,3.17
2023-04-27T04:59:36.060Z,3.13
2023-04-27T05:02:04.011Z,3.26
2023-04-27T05:04:32.430Z,3.32
2023-04-27T05:07:01.346Z,3.37
2023-04-27T05:09:30.683Z,3.41
2023-04-27T05:11:58.518Z,3.22
2023-04-27T05:14:26.499Z,3.52
2023-04-27T05:16:54.530Z,3.57
2023-04-27T05:19:22.366Z,3.59
2023-04-27T05:21:50.389Z,3.63
2023-04-27T05:24:18.461Z,3.66
2023-04-27T05:26:47.651Z,3.74
2023-04-27T05:29:16.044Z,3.79
2023-04-27T05:31:44.510Z,3.56
2023-04-27T05:34:13.316Z,3.88
2023-04-27T05:36:41.417Z,3.94
2023-04-27T05:39:09.482Z,3.99
2023-04-27T05:41:37.722Z,4.05
2023-04-27T05:44:07.659Z,4.10
2023-04-27T05:46:38.432Z,4.17
2023-04-27T05:49:06.941Z,4.23
2023-04-27T05:51:34.996Z,4.29
2023-04-27T05:54:02.942Z,4.35
2023-04-27T05:56:30.954Z,4.14
2023-04-27T05:59:10.970Z,4.18
2023-04-27T06:01:40.382Z,4.50
2023-04-27T06:04:08.401Z,4.54
2023-04-27T06:06:37.190Z,4.61
2023-04-27T06:09:05.301Z,4.69
2023-04-27T06:11:33.158Z,4.73
2023-04-27T06:14:00.986Z,4.59
2023-04-27T06:16:29.113Z,4.82
2023-04-27T06:18:58.401Z,4.85
2023-04-27T06:21:26.598Z,4.92
2023-04-27T06:23:54.729Z,5.00
2023-04-27T06:26:22.615Z,5.04
2023-04-27T06:28:50.441Z,5.09
2023-04-27T06:31:18.601Z,5.11
2023-04-27T06:33:46.514Z,5.16
2023-04-27T06:36:15.673Z,5.27
2023-04-27T06:38:43.815Z,5.31
2023-04-27T06:41:11.720Z,5.30
2023-04-27T06:43:39.636Z,5.27
2023-04-27T06:46:08.018Z,5.41
2023-04-27T06:48:35.872Z,5.42
2023-04-27T06:51:03.695Z,5.48
2023-04-27T06:53:33.270Z,5.50
2023-04-27T06:56:01.279Z,5.57
2023-04-27T06:58:29.150Z,5.67
2023-04-27T07:00:57.504Z,5.85
2023-04-27T07:03:25.487Z,6.12
2023-04-27T07:05:53.475Z,6.28
2023-04-27T07:08:21.661Z,6.45
2023-04-27T07:10:51.381Z,6.78
2023-04-27T07:13:19.204Z,7.31
2023-04-27T07:15:47.200Z,8.04
2023-04-27T07:18:15.082Z,8.61
2023-04-27T07:20:43.308Z,9.19
2023-04-27T07:23:11.777Z,9.40
2023-04-27T07:25:40.649Z,9.81
2023-04-27T07:28:10.082Z,10.17
2023-04-27T07:30:38.817Z,9.85
2023-04-27T07:33:07.281Z,9.27
2023-04-27T07:35:35.209Z,8.79
2023-04-27T07:38:03.953Z,8.89
2023-04-27T07:40:32.866Z,8.79
2023-04-27T07:43:00.716Z,9.22
2023-04-27T07:45:33.119Z,9.91
2023-04-27T07:48:02.333Z,10.66
2023-04-27T07:50:30.987Z,11.08
2023-04-27T07:52:59.461Z,11.34
2023-04-27T07:55:28.396Z,11.68
2023-04-27T07:57:57.330Z,11.67
2023-04-27T08:00:26.558Z,11.55
2023-04-27T08:02:56.638Z,11.71
2023-04-27T08:05:25.141Z,12.08
2023-04-27T08:07:54.601Z,12.14
2023-04-27T08:10:22.942Z,12.05
2023-04-27T08:12:50.980Z,12.18
2023-04-27T08:15:18.984Z,12.67
2023-04-27T08:17:47.406Z,12.09
2023-04-27T08:20:16.869Z,12.08
2023-04-27T08:22:45.231Z,11.96
2023-04-27T08:25:13.122Z,11.99
2023-04-27T08:27:41.456Z,11.25
2023-04-27T08:30:10.443Z,10.79
2023-04-27T08:32:38.452Z,10.83
2023-04-27T08:35:07.239Z,10.72
2023-04-27T08:37:36.614Z,10.86
2023-04-27T08:40:07.946Z,11.10
2023-04-27T08:42:35.919Z,11.36
2023-04-27T08:45:04.854Z,11.84
2023-04-27T08:47:42.620Z,12.58
2023-04-27T08:50:12.677Z,12.80
2023-04-27T08:52:44.720Z,12.48
2023-04-27T08:55:14.968Z,11.44
2023-04-27T08:57:54.724Z,10.43
2023-04-27T09:00:22.910Z,10.78
2023-04-27T09:02:51.165Z,11.22
2023-04-27T09:05:20.214Z,11.89
2023-04-27T09:08:00.862Z,12.67
2023-04-27T09:10:30.113Z,13.06
2023-04-27T09:12:59.525Z,13.08
2023-04-27T09:15:27.666Z,13.19
2023-04-27T09:17:57.418Z,13.29
2023-04-27T09:20:27.197Z,13.03
2023-04-27T09:22:57.739Z,12.10
2023-04-27T09:25:29.036Z,11.61
2023-04-27T09:27:58.315Z,10.97
2023-04-27T09:30:26.707Z,9.75
2023-04-27T09:32:57.130Z,10.60
2023-04-27T09:35:27.288Z,10.33
2023-04-27T09:37:55.998Z,9.97
2023-04-27T09:40:28.335Z,9.83
2023-04-27T09:42:59.068Z,10.50
2023-04-27T09:45:27.138Z,10.89
2023-04-27T09:47:55.502Z,12.22
2023-04-27T09:50:23.581Z,12.67
2023-04-27T09:52:51.500Z,12.54
2023-04-27T09:55:25.882Z,12.47
2023-04-27T09:58:06.333Z,13.14
2023-04-27T10:00:49.590Z,14.28
2023-04-27T10:03:23.928Z,15.25
2023-04-27T10:06:21.340Z,14.44
2023-04-27T10:08:51.930Z,13.32
2023-04-27T10:11:20.192Z,12.66
2023-04-27T10:13:56.591Z,11.80
2023-04-27T10:16:24.597Z,11.17
2023-04-27T10:18:54.359Z,10.73
2023-04-27T10:21:22.459Z,10.14
2023-04-27T10:23:52.001Z,9.39
2023-04-27T10:26:26.332Z,9.32
2023-04-27T10:29:00.182Z,8.27
2023-04-27T10:31:31.225Z,9.34
2023-04-27T10:34:19.727Z,9.54
2023-04-27T10:36:49.191Z,9.78
2023-04-27T10:39:18.543Z,9.67
2023-04-27T10:41:54.224Z,9.28
2023-04-27T10:44:28.779Z,9.09
2023-04-27T10:46:58.278Z,9.06
2023-04-27T10:49:28.696Z,8.95
2023-04-27T10:51:59.701Z,8.82
2023-04-27T10:54:29.590Z,8.47
2023-04-27T10:57:04.911Z,8.23
2023-04-27T10:59:34.876Z,7.82
2023-04-27T11:02:03.235Z,7.33
2023-04-27T11:04:40.481Z,7.15
2023-04-27T11:07:10.226Z,6.95
2023-04-27T11:09:39.324Z,7.67
2023-04-27T11:12:09.224Z,8.02
2023-04-27T11:14:38.744Z,9.23
2023-04-27T11:17:07.152Z,9.92
2023-04-27T11:19:45.985Z,10.89
2023-04-27T11:22:16.428Z,11.34
2023-04-27T11:24:49.562Z,10.89
2023-04-27T11:27:18.033Z,10.97
2023-04-27T11:29:47.284Z,10.83
2023-04-27T11:32:21.147Z,10.76
2023-04-27T11:34:53.779Z,10.55
2023-04-27T11:37:25.362Z,10.32
2023-04-27T11:39:54.171Z,10.01
2023-04-27T11:42:23.902Z,9.59
2023-04-27T11:44:56.297Z,9.11
2023-04-27T11:47:25.862Z,8.82
2023-04-27T11:49:56.095Z,8.35
2023-04-27T11:52:24.552Z,8.72
2023-04-27T11:54:56.527Z,8.77
2023-04-27T11:57:27.480Z,9.35
2023-04-27T11:59:58.855Z,9.64
2023-04-27T16:57:52.536Z,8.45
2023-04-27T17:00:21.389Z,8.66
2023-04-27T17:02:49.404Z,8.86
2023-04-27T17:05:17.908Z,9.04
2023-04-27T17:07:46.239Z,9.23
2023-04-27T17:10:14.063Z,9.39
2023-04-27T17:12:42.196Z,9.75
2023-04-27T17:15:12.486Z,9.88
2023-04-27T17:17:40.403Z,9.75
2023-04-27T17:20:10.417Z,9.43
2023-04-27T17:22:38.461Z,9.06
2023-04-27T17:25:07.898Z,8.68
2023-04-27T17:27:36.026Z,8.23
2023-04-27T17:30:04.906Z,8.00
2023-04-27T17:32:34.144Z,7.42
2023-04-27T17:35:02.309Z,7.54
2023-04-27T17:37:30.172Z,7.30
2023-04-27T17:39:59.623Z,7.05
2023-04-27T17:42:28.238Z,6.90
2023-04-27T17:44:56.087Z,6.65
2023-04-27T17:47:25.445Z,6.58
2023-04-27T17:49:57.565Z,6.45
2023-04-27T17:52:25.461Z,6.25
2023-04-27T17:54:53.306Z,6.12
2023-04-27T17:57:21.630Z,5.98
2023-04-27T17:59:50.082Z,5.87
2023-04-27T18:02:18.065Z,5.84
2023-04-27T18:04:46.167Z,5.81
2023-04-27T18:07:18.525Z,5.76
2023-04-27T18:09:46.828Z,5.82
2023-04-27T18:12:14.817Z,5.82
2023-04-27T18:14:42.642Z,5.79
2023-04-27T18:17:10.561Z,5.67
2023-04-27T18:19:38.563Z,5.49
2023-04-27T18:22:06.428Z,5.61
2023-04-27T18:24:35.800Z,5.50
2023-04-27T18:27:04.199Z,5.45
2023-04-27T18:29:33.064Z,5.47
2023-04-27T18:32:05.656Z,5.38
2023-04-27T18:34:33.852Z,5.40
2023-04-27T18:37:02.036Z,5.27
2023-04-27T18:39:30.101Z,5.31
2023-04-27T18:41:59.458Z,5.33
2023-04-27T18:44:27.451Z,5.31
2023-04-27T18:46:55.501Z,5.26
2023-04-27T18:49:23.534Z,5.29
2023-04-27T18:51:51.375Z,5.29
2023-04-27T18:54:19.388Z,5.30
2023-04-27T18:56:50.758Z,5.22
2023-04-27T18:59:20.402Z,4.84
2023-04-27T19:01:51.319Z,5.23
2023-04-27T19:04:19.321Z,5.31
2023-04-27T19:06:47.719Z,5.33
2023-04-27T19:09:16.292Z,5.31
2023-04-27T19:11:44.547Z,5.29
2023-04-27T19:14:16.052Z,5.25
2023-04-27T19:16:48.166Z,5.21
2023-04-27T19:19:16.993Z,5.17
2023-04-27T19:21:46.701Z,5.13
2023-04-27T19:24:14.618Z,4.84
2023-04-27T19:26:42.612Z,5.00
2023-04-27T19:29:10.809Z,4.95
2023-04-27T19:31:38.708Z,4.86
2023-04-27T19:34:08.028Z,4.81
2023-04-27T19:36:37.616Z,4.63
2023-04-27T19:39:05.498Z,4.72
2023-04-27T19:41:34.621Z,4.70
2023-04-27T19:44:02.613Z,4.65
2023-04-27T19:46:31.712Z,4.62
2023-04-27T19:49:01.158Z,4.57
2023-04-27T19:51:31.729Z,4.55
2023-04-27T19:53:59.570Z,4.35
2023-04-27T19:56:27.548Z,4.50
2023-04-27T19:58:55.799Z,4.47
2023-04-27T20:01:23.713Z,4.44
2023-04-27T20:03:53.439Z,4.34
2023-04-27T20:06:21.797Z,4.39
2023-04-27T20:08:53.603Z,4.21
2023-04-27T20:11:21.431Z,4.35
2023-04-27T20:13:49.639Z,4.32
2023-04-27T20:16:18.410Z,4.27
2023-04-27T20:18:46.599Z,4.28
2023-04-27T20:21:14.688Z,4.13
2023-04-27T20:23:42.912Z,4.23
2023-04-27T20:26:12.105Z,4.18
2023-04-27T20:28:40.074Z,4.21
2023-04-27T20:31:08.271Z,4.19
2023-04-27T20:33:36.407Z,4.16
2023-04-27T20:36:16.226Z,4.14
2023-04-27T20:38:45.055Z,4.12
2023-04-27T20:41:14.472Z,4.09
2023-04-27T20:43:44.848Z,4.06
2023-04-27T20:46:13.249Z,3.62
2023-04-27T20:48:41.202Z,3.84
2023-04-27T20:51:09.341Z,4.01
2023-04-27T20:53:37.272Z,3.94
2023-04-27T20:56:05.604Z,3.48
2023-04-27T20:58:35.085Z,3.65
2023-04-27T21:01:05.839Z,3.92
2023-04-27T21:03:36.382Z,3.91
2023-04-27T21:06:04.890Z,3.89
2023-04-27T21:08:33.617Z,3.89
2023-04-27T21:11:07.259Z,3.80
2023-04-27T21:13:38.800Z,3.84
2023-04-27T21:16:07.447Z,3.70
2023-04-27T21:18:35.488Z,3.82
2023-04-27T21:21:03.355Z,3.83
2023-04-27T21:23:31.439Z,3.83
2023-04-27T21:25:59.523Z,3.76
2023-04-27T21:28:27.664Z,3.84
2023-04-27T21:30:57.048Z,3.59
2023-04-27T21:33:25.014Z,3.82
2023-04-27T21:35:52.836Z,3.81
2023-04-27T21:38:20.870Z,3.73
2023-04-27T21:40:48.791Z,3.68
2023-04-27T21:43:16.624Z,3.76
2023-04-27T21:45:44.658Z,3.75
2023-04-27T21:48:13.939Z,3.64
2023-04-27T21:50:41.791Z,3.69
2023-04-27T21:53:09.900Z,3.65
2023-04-27T21:55:37.935Z,3.64
2023-04-27T21:58:05.807Z,3.63
2023-04-27T22:00:33.726Z,3.51
2023-04-27T22:03:02.795Z,3.58
2023-04-27T22:05:33.553Z,3.56
2023-04-27T22:08:01.553Z,3.55
2023-04-27T22:10:29.537Z,3.49
2023-04-27T22:13:00.193Z,3.52
2023-04-27T22:15:30.647Z,3.50
2023-04-27T22:17:59.523Z,3.45
2023-04-27T22:20:27.407Z,3.44
2023-04-27T22:22:56.894Z,3.43
2023-04-27T22:25:25.138Z,3.38
2023-04-27T22:27:52.938Z,3.39
2023-04-27T22:30:21.143Z,3.40
2023-04-27T22:32:49.129Z,3.26
2023-04-27T22:37:49.712Z,3.36
2023-04-27T22:40:19.226Z,3.35
2023-04-27T22:42:47.074Z,3.22
2023-04-27T22:45:15.272Z,3.24
2023-04-27T22:47:44.724Z,3.31
2023-04-27T22:50:13.237Z,3.11
2023-04-27T22:52:42.524Z,3.21
2023-04-27T22:55:11.136Z,3.24
2023-04-27T22:57:40.549Z,3.25
2023-04-27T23:00:11.619Z,3.19
2023-04-27T23:02:40.278Z,3.16
2023-04-27T23:05:09.167Z,2.51
2023-04-27T23:07:37.347Z,3.19
2023-04-27T23:10:06.126Z,3.25
2023-04-27T23:12:34.586Z,3.26
2023-04-27T23:15:04.108Z,2.40
2023-04-27T23:17:32.103Z,3.31
2023-04-27T23:20:01.187Z,3.34
2023-04-27T23:22:29.509Z,3.31
2023-04-27T23:24:57.491Z,3.30
2023-04-27T23:27:25.366Z,3.20
2023-04-27T23:29:53.368Z,3.36
2023-04-27T23:32:23.058Z,2.56
2023-04-27T23:34:54.347Z,3.32
2023-04-27T23:37:22.586Z,3.28
2023-04-27T23:39:50.817Z,3.24
2023-04-27T23:42:18.776Z,3.20
2023-04-27T23:44:46.708Z,3.16
2023-04-27T23:47:14.601Z,3.14
2023-04-27T23:49:45.943Z,3.10
2023-04-27T23:52:14.444Z,3.07
2023-04-27T23:54:42.318Z,2.99
2023-04-27T23:57:10.270Z,2.93
2023-04-27T23:59:38.262Z,2.97
